Time;durP1;ratioP1;P1;durP2;ratioP2;P2;SDS_P1;SDS_P2;PMS_P1;PMS_P2;Temp;Humidity;BMP_temperature;BMP_pressure;BME280_temperature;BME280_humidity;BME280_pressure;Samples;Min_cycle;Max_cycle;Signal;HPM_P1;HPM_P2
2021/08/03 00:01:40;;;;;;;3.70;3.40;;;17.90;1.00;;;;;;5130166;27;20173;-54
2021/08/03 00:04:10;;;;;;;5.40;3.00;;;17.80;1.00;;;;;;5128259;27;20218;-55
2021/08/03 00:06:43;;;;;;;6.60;3.30;;;17.80;1.00;;;;;;5129485;27;20553;-53
2021/08/03 00:09:09;;;;;;;3.10;2.90;;;17.70;1.00;;;;;;5130599;27;20478;-53
2021/08/03 00:11:41;;;;;;;3.60;3.27;;;17.70;1.00;;;;;;5129965;27;20445;-54
2021/08/03 00:14:06;;;;;;;3.50;2.63;;;17.70;1.00;;;;;;5130239;27;20438;-53
2021/08/03 00:16:43;;;;;;;4.33;3.27;;;17.60;1.00;;;;;;5128780;27;20812;-54
2021/08/03 00:19:09;;;;;;;3.53;3.23;;;17.60;1.00;;;;;;5128235;27;20189;-55
2021/08/03 00:21:35;;;;;;;3.20;2.90;;;17.50;1.00;;;;;;5127768;27;20834;-53
2021/08/03 00:24:02;;;;;;;3.30;3.00;;;17.50;1.00;;;;;;5128284;27;20177;-55
2021/08/03 00:26:28;;;;;;;5.83;2.93;;;17.50;1.00;;;;;;5129488;27;20938;-54
2021/08/03 00:28:54;;;;;;;3.37;3.07;;;17.50;1.00;;;;;;5130419;27;20928;-54
2021/08/03 00:31:23;;;;;;;3.43;3.10;;;17.40;1.00;;;;;;5130691;27;21032;-54
2021/08/03 00:33:50;;;;;;;5.00;2.80;;;17.30;1.00;;;;;;5126639;27;20443;-56
2021/08/03 00:36:16;;;;;;;3.70;3.10;;;17.40;1.00;;;;;;5132995;27;20857;-55
2021/08/03 00:38:42;;;;;;;4.53;2.93;;;17.40;1.00;;;;;;5134399;27;20443;-54
2021/08/03 00:41:17;;;;;;;3.53;3.23;;;17.40;1.00;;;;;;5133340;27;20499;-54
2021/08/03 00:43:43;;;;;;;4.00;3.60;;;17.40;1.00;;;;;;5131903;27;20177;-54
2021/08/03 00:46:09;;;;;;;3.20;2.87;;;17.50;1.00;;;;;;5132942;27;20450;-55
2021/08/03 00:48:34;;;;;;;3.63;3.33;;;17.50;1.00;;;;;;5132695;27;20212;-53
2021/08/03 00:51:00;;;;;;;4.83;3.30;;;17.50;1.00;;;;;;5133010;27;20438;-55
2021/08/03 00:53:25;;;;;;;3.80;3.50;;;17.60;1.00;;;;;;5115086;27;20219;-54
2021/08/03 00:55:51;;;;;;;3.60;3.30;;;17.60;1.00;;;;;;5131691;27;20211;-56
2021/08/03 00:58:17;;;;;;;3.53;3.23;;;17.60;1.00;;;;;;5131810;27;20233;-54
2021/08/03 01:00:42;;;;;;;2.60;2.40;;;17.70;1.00;;;;;;5132214;27;20442;-54
2021/08/03 01:03:08;;;;;;;2.70;2.50;;;17.70;1.00;;;;;;5130682;27;20187;-54
2021/08/03 01:06:09;;;;;;;3.90;3.50;;;17.60;1.00;;;;;;5132206;27;20626;-52
2021/08/03 01:08:46;;;;;;;4.50;3.00;;;18.00;1.00;;;;;;5124466;27;20575;-56
2021/08/03 01:11:20;;;;;;;5.33;3.03;;;17.80;1.00;;;;;;5129963;27;21388;-53
2021/08/03 01:13:53;;;;;;;3.10;2.90;;;17.80;1.00;;;;;;5127965;27;20451;-54
2021/08/03 01:16:29;;;;;;;2.83;2.63;;;17.70;1.00;;;;;;5131459;27;20922;-56
2021/08/03 01:19:13;;;;;;;2.80;2.60;;;17.70;1.00;;;;;;5132912;27;20450;-53
2021/08/03 01:21:52;;;;;;;3.13;2.83;;;17.70;1.00;;;;;;5131141;27;20470;-54
2021/08/03 01:24:43;;;;;;;2.93;2.73;;;17.70;1.00;;;;;;5114758;27;20447;-54
2021/08/03 01:27:28;;;;;;;2.97;2.77;;;17.70;1.00;;;;;;5131414;27;20827;-53
2021/08/03 01:29:57;;;;;;;2.90;2.70;;;17.80;1.00;;;;;;5132154;27;20480;-53
2021/08/03 01:32:28;;;;;;;3.23;2.47;;;17.80;1.00;;;;;;5131130;27;20489;-53
2021/08/03 01:34:55;;;;;;;2.90;2.70;;;17.80;1.00;;;;;;5131837;27;20438;-55
2021/08/03 01:37:22;;;;;;;2.80;2.60;;;17.80;1.00;;;;;;5132673;27;20525;-55
2021/08/03 01:39:57;;;;;;;2.87;2.67;;;17.80;1.00;;;;;;5128756;27;20527;-54
2021/08/03 01:42:25;;;;;;;3.50;2.67;;;19.00;1.00;;;;;;5129293;27;20449;-56
2021/08/03 01:44:52;;;;;;;2.87;2.67;;;17.70;1.00;;;;;;5132200;27;20969;-54
2021/08/03 01:47:22;;;;;;;2.60;2.40;;;17.80;1.00;;;;;;5128911;27;20658;-55
2021/08/03 01:49:50;;;;;;;4.57;2.90;;;17.70;1.00;;;;;;5131944;27;20906;-55
2021/08/03 01:52:17;;;;;;;3.03;2.30;;;17.70;1.00;;;;;;5131663;27;20841;-56
2021/08/03 01:54:46;;;;;;;4.70;2.40;;;17.70;1.00;;;;;;5132795;27;20428;-55
2021/08/03 01:57:14;;;;;;;7.73;2.60;;;17.70;1.00;;;;;;5113449;27;20435;-55
2021/08/03 01:59:42;;;;;;;3.30;2.47;;;17.70;1.00;;;;;;5130329;27;20435;-54
2021/08/03 02:02:08;;;;;;;3.90;2.23;;;17.70;1.00;;;;;;5132429;27;20417;-56
2021/08/03 02:04:34;;;;;;;2.77;2.57;;;17.70;1.00;;;;;;5132541;27;20525;-54
2021/08/03 02:07:00;;;;;;;4.30;2.80;;;17.70;1.00;;;;;;5130272;27;20443;-55
2021/08/03 02:09:26;;;;;;;4.63;2.33;;;17.60;1.00;;;;;;5132872;27;20437;-53
2021/08/03 02:11:53;;;;;;;2.70;2.50;;;17.60;1.00;;;;;;5131561;27;20462;-55
2021/08/03 02:14:23;;;;;;;3.00;2.70;;;17.60;1.00;;;;;;5130150;27;20440;-54
2021/08/03 02:16:49;;;;;;;2.73;2.53;;;17.70;1.00;;;;;;5132038;27;20439;-55
2021/08/03 02:19:15;;;;;;;2.20;2.03;;;17.70;1.00;;;;;;5112901;27;20442;-54
2021/08/03 02:21:45;;;;;;;2.67;2.47;;;17.50;1.00;;;;;;5097143;27;20427;-54
2021/08/03 02:24:10;;;;;;;2.80;1.97;;;17.60;1.00;;;;;;5130007;27;20181;-54
2021/08/03 02:26:36;;;;;;;2.30;2.10;;;17.60;1.00;;;;;;5132247;27;20439;-54
2021/08/03 02:29:03;;;;;;;2.40;2.20;;;17.60;1.00;;;;;;5132644;27;20284;-54
2021/08/03 02:31:44;;;;;;;2.30;2.10;;;17.60;1.00;;;;;;5132126;27;20188;-54
2021/08/03 02:34:19;;;;;;;3.03;2.53;;;17.50;1.00;;;;;;5131621;27;20431;-54
2021/08/03 02:36:49;;;;;;;3.00;2.43;;;17.60;1.00;;;;;;5129561;27;20438;-54
2021/08/03 02:39:17;;;;;;;2.50;2.30;;;17.60;1.00;;;;;;5131263;27;20487;-55
2021/08/03 02:41:45;;;;;;;3.23;2.93;;;17.60;1.00;;;;;;5131721;27;20438;-56
2021/08/03 02:44:12;;;;;;;2.80;2.60;;;17.60;1.00;;;;;;5111673;27;20900;-53
2021/08/03 02:46:40;;;;;;;5.67;2.30;;;17.70;1.00;;;;;;5131679;27;20447;-53
2021/08/03 02:49:08;;;;;;;2.57;2.37;;;17.70;1.00;;;;;;5131634;27;20901;-55
2021/08/03 02:51:37;;;;;;;2.60;2.40;;;17.80;1.00;;;;;;5130540;27;20526;-56
2021/08/03 02:54:15;;;;;;;2.77;2.57;;;17.70;1.00;;;;;;5128550;27;20439;-54
2021/08/03 02:56:42;;;;;;;3.30;2.30;;;17.70;1.00;;;;;;5130909;27;20434;-55
2021/08/03 02:59:12;;;;;;;2.47;2.03;;;17.70;1.00;;;;;;5131890;27;20808;-52
2021/08/03 03:01:40;;;;;;;4.50;2.60;;;17.60;1.00;;;;;;5131806;27;20527;-54
2021/08/03 03:04:11;;;;;;;2.50;2.30;;;17.70;1.00;;;;;;5128272;27;20439;-54
2021/08/03 03:06:39;;;;;;;3.20;2.90;;;17.70;1.00;;;;;;5132409;27;20446;-55
2021/08/03 03:09:04;;;;;;;2.90;2.63;;;17.70;1.00;;;;;;5130921;27;20553;-56
2021/08/03 03:11:32;;;;;;;2.70;2.50;;;17.70;1.00;;;;;;5130288;27;20522;-53
2021/08/03 03:14:01;;;;;;;2.50;2.30;;;17.80;1.00;;;;;;5131318;27;20182;-55
2021/08/03 03:16:31;;;;;;;3.27;2.97;;;17.70;1.00;;;;;;5131366;27;20435;-54
2021/08/03 03:18:57;;;;;;;2.97;2.77;;;17.80;1.00;;;;;;5130850;27;20796;-54
2021/08/03 03:21:24;;;;;;;2.87;2.47;;;17.80;1.00;;;;;;5127937;27;20422;-54
2021/08/03 03:23:53;;;;;;;2.93;2.53;;;17.70;1.00;;;;;;5129129;27;20655;-53
2021/08/03 03:26:23;;;;;;;2.57;2.37;;;17.70;1.00;;;;;;5132017;27;20520;-55
2021/08/03 03:28:50;;;;;;;2.67;2.47;;;17.70;1.00;;;;;;5128373;27;20494;-55
2021/08/03 03:31:17;;;;;;;2.30;2.00;;;17.60;1.00;;;;;;5129716;27;21038;-54
2021/08/03 03:33:43;;;;;;;2.30;2.10;;;17.50;1.00;;;;;;5130639;27;20450;-57
2021/08/03 03:36:10;;;;;;;5.30;2.67;;;17.60;1.00;;;;;;5128581;27;21002;-54
2021/08/03 03:38:38;;;;;;;2.33;2.13;;;17.60;1.00;;;;;;5130870;27;20420;-55
2021/08/03 03:41:05;;;;;;;2.60;2.40;;;17.50;1.00;;;;;;5130811;27;20413;-55
2021/08/03 03:43:31;;;;;;;3.27;2.97;;;17.60;1.00;;;;;;5130188;27;20631;-54
2021/08/03 03:46:03;;;;;;;3.17;2.87;;;17.70;1.00;;;;;;5128489;27;20983;-54
2021/08/03 03:48:32;;;;;;;3.83;2.73;;;19.40;1.00;;;;;;5130971;27;20297;-55
2021/08/03 03:51:00;;;;;;;2.87;2.67;;;17.70;1.00;;;;;;5130698;27;20935;-54
2021/08/03 03:53:32;;;;;;;3.20;2.50;;;17.70;1.00;;;;;;5128876;27;20471;-54
2021/08/03 03:55:59;;;;;;;3.30;2.60;;;17.70;1.00;;;;;;5130552;27;20474;-54
2021/08/03 03:58:29;;;;;;;2.60;2.40;;;17.70;1.00;;;;;;5131319;27;20898;-55
2021/08/03 04:00:56;;;;;;;2.97;2.67;;;17.80;1.00;;;;;;5130526;27;20927;-55
2021/08/03 04:03:25;;;;;;;3.50;2.60;;;17.70;1.00;;;;;;5124340;27;20442;-53
2021/08/03 04:05:51;;;;;;;3.13;2.83;;;17.60;1.00;;;;;;5128290;27;20443;-57
2021/08/03 04:08:17;;;;;;;2.50;2.30;;;17.60;1.00;;;;;;5129235;27;20938;-55
2021/08/03 04:10:42;;;;;;;3.40;3.13;;;17.60;1.00;;;;;;5131256;27;20423;-56
2021/08/03 04:13:09;;;;;;;3.50;2.90;;;17.50;1.00;;;;;;5127827;27;20178;-56
2021/08/03 04:15:35;;;;;;;2.73;2.53;;;17.60;1.00;;;;;;5128456;27;20209;-55
2021/08/03 04:18:01;;;;;;;7.63;3.50;;;17.60;1.00;;;;;;5130267;27;20429;-56
2021/08/03 04:20:27;;;;;;;3.57;3.30;;;17.70;1.00;;;;;;5144288;27;20441;-55
2021/08/03 04:22:53;;;;;;;3.10;2.70;;;17.70;1.00;;;;;;5135089;27;20579;-56
2021/08/03 04:25:18;;;;;;;3.27;2.97;;;17.80;1.00;;;;;;5129522;27;20548;-55
2021/08/03 04:27:44;;;;;;;3.13;2.93;;;18.30;1.00;;;;;;5130383;27;20194;-55
2021/08/03 04:30:13;;;;;;;2.97;2.77;;;17.70;1.00;;;;;;5138782;27;20288;-55
2021/08/03 04:32:38;;;;;;;3.60;3.30;;;17.80;1.00;;;;;;5123389;27;20177;-55
2021/08/03 04:35:05;;;;;;;3.20;2.90;;;18.20;1.00;;;;;;5128100;27;20450;-54
2021/08/03 04:37:41;;;;;;;3.07;2.87;;;17.70;1.00;;;;;;5127999;27;20547;-54
2021/08/03 04:40:08;;;;;;;3.10;2.80;;;17.70;1.00;;;;;;5129228;27;20465;-54
2021/08/03 04:42:34;;;;;;;3.40;2.80;;;17.60;1.00;;;;;;5130649;27;20446;-53
2021/08/03 04:45:00;;;;;;;2.93;2.63;;;17.60;1.00;;;;;;5139636;27;20847;-54
2021/08/03 04:47:26;;;;;;;6.03;3.40;;;17.60;1.00;;;;;;5138654;27;20480;-55
2021/08/03 04:49:51;;;;;;;5.10;2.83;;;17.60;1.00;;;;;;5149811;27;20204;-54
2021/08/03 04:52:17;;;;;;;6.30;3.40;;;17.70;1.00;;;;;;5145218;27;20234;-53
2021/08/03 04:54:42;;;;;;;3.30;3.00;;;17.50;1.00;;;;;;5142782;27;20187;-55
2021/08/03 04:57:08;;;;;;;3.97;3.20;;;17.50;1.00;;;;;;5138108;27;20255;-54
2021/08/03 04:59:33;;;;;;;3.97;3.67;;;17.60;1.00;;;;;;5125527;27;20181;-55
2021/08/03 05:02:01;;;;;;;3.30;3.00;;;17.60;1.00;;;;;;5126833;27;20191;-54
2021/08/03 05:04:29;;;;;;;3.60;3.30;;;17.70;1.00;;;;;;5109869;27;20197;-55
2021/08/03 05:06:55;;;;;;;3.27;2.93;;;17.80;1.00;;;;;;5127078;27;20449;-54
2021/08/03 05:09:20;;;;;;;3.37;3.07;;;17.90;1.00;;;;;;5128728;27;20890;-55
2021/08/03 05:11:46;;;;;;;3.00;2.80;;;18.00;1.00;;;;;;5130698;27;20653;-54
2021/08/03 05:14:11;;;;;;;3.50;3.20;;;18.20;1.00;;;;;;5129283;27;20234;-55
2021/08/03 05:16:37;;;;;;;4.03;3.63;;;18.30;1.00;;;;;;5130774;27;20648;-54
2021/08/03 05:19:02;;;;;;;3.60;3.30;;;18.40;1.00;;;;;;5129497;27;20261;-53
2021/08/03 05:21:28;;;;;;;3.17;2.73;;;18.40;1.00;;;;;;5132955;27;20186;-55
2021/08/03 05:23:53;;;;;;;3.03;2.73;;;18.40;1.00;;;;;;5133020;27;20519;-54
2021/08/03 05:26:20;;;;;;;3.67;3.27;;;18.40;1.00;;;;;;5133266;27;20638;-54
2021/08/03 05:28:45;;;;;;;4.17;3.40;;;18.60;1.00;;;;;;5133497;27;20197;-56
2021/08/03 05:31:13;;;;;;;6.00;3.30;;;18.60;1.00;;;;;;5133315;27;20778;-55
2021/08/03 05:33:39;;;;;;;5.00;3.53;;;18.60;1.00;;;;;;5127747;27;20221;-54
2021/08/03 05:36:04;;;;;;;3.43;3.20;;;18.70;1.00;;;;;;5131821;27;20431;-54
2021/08/03 05:38:30;;;;;;;3.73;3.40;;;18.70;1.00;;;;;;5148631;27;20486;-55
2021/08/03 05:40:55;;;;;;;5.17;3.03;;;18.80;1.00;;;;;;5133235;27;20184;-55
2021/08/03 05:43:21;;;;;;;3.20;2.77;;;18.70;1.00;;;;;;5133272;27;20306;-54
2021/08/03 05:45:46;;;;;;;4.20;3.10;;;18.70;1.00;;;;;;5114378;27;20189;-55
2021/08/03 05:48:13;;;;;;;5.00;3.90;;;18.70;1.00;;;;;;5132898;27;20522;-55
2021/08/03 05:50:39;;;;;;;3.47;3.17;;;18.90;1.00;;;;;;5111907;27;20205;-54
2021/08/03 05:53:04;;;;;;;4.27;3.27;;;18.90;1.00;;;;;;5128979;27;20932;-54
2021/08/03 05:55:30;;;;;;;4.30;3.03;;;19.00;1.00;;;;;;5132155;27;20506;-55
2021/08/03 05:57:55;;;;;;;3.67;3.37;;;19.20;1.00;;;;;;5132165;27;20205;-54
2021/08/03 06:00:21;;;;;;;3.70;3.40;;;19.40;1.00;;;;;;5129810;27;20542;-55
2021/08/03 06:02:46;;;;;;;3.10;2.80;;;19.50;1.00;;;;;;5129548;27;20665;-55
2021/08/03 06:05:12;;;;;;;2.80;2.60;;;19.60;1.00;;;;;;5131898;27;20184;-54
2021/08/03 06:07:41;;;;;;;2.97;2.77;;;19.70;1.00;;;;;;5132725;27;20173;-55
2021/08/03 06:10:14;;;;;;;3.50;3.20;;;19.80;1.00;;;;;;5131974;27;20195;-55
2021/08/03 06:12:46;;;;;;;3.53;2.77;;;19.80;1.00;;;;;;5130774;27;20932;-54
2021/08/03 06:15:12;;;;;;;6.33;2.90;;;19.80;1.00;;;;;;5133035;27;20461;-54
2021/08/03 06:17:42;;;;;;;4.47;2.90;;;20.10;1.00;;;;;;5131045;27;20812;-54
2021/08/03 06:20:08;;;;;;;4.00;3.03;;;20.10;1.00;;;;;;5130591;27;20441;-55
2021/08/03 06:22:38;;;;;;;3.33;3.03;;;20.20;1.00;;;;;;5132439;27;20410;-55
2021/08/03 06:25:05;;;;;;;3.27;3.00;;;20.40;1.00;;;;;;5128613;27;20914;-55
2021/08/03 06:27:32;;;;;;;3.90;2.80;;;20.60;1.00;;;;;;5132618;27;20406;-55
2021/08/03 06:30:05;;;;;;;3.50;2.90;;;20.90;1.00;;;;;;5129502;27;20490;-54
2021/08/03 06:32:31;;;;;;;3.07;2.77;;;21.00;1.00;;;;;;5129976;27;20758;-55
2021/08/03 06:34:57;;;;;;;3.00;2.70;;;21.10;1.00;;;;;;5130077;27;20431;-54
2021/08/03 06:37:23;;;;;;;3.07;2.60;;;21.10;1.00;;;;;;5131481;27;20843;-55
2021/08/03 06:39:49;;;;;;;5.97;2.63;;;21.30;1.00;;;;;;5131086;27;20193;-54
2021/08/03 06:42:47;;;;;;;3.13;2.83;;;21.50;1.00;;;;;;5129136;27;20178;-55
2021/08/03 06:45:19;;;;;;;3.27;2.97;;;21.40;1.00;;;;;;5128203;27;20294;-55
2021/08/03 06:48:09;;;;;;;4.57;2.80;;;21.20;1.00;;;;;;5130236;27;20449;-55
2021/08/03 06:50:52;;;;;;;3.70;2.50;;;21.20;1.00;;;;;;5127062;27;20831;-54
2021/08/03 06:53:19;;;;;;;3.00;2.77;;;21.40;1.00;;;;;;5134231;27;21014;-55
2021/08/03 06:55:47;;;;;;;3.60;2.80;;;21.20;1.00;;;;;;5128986;27;20434;-54
2021/08/03 06:58:26;;;;;;;2.73;2.53;;;21.40;1.00;;;;;;5131114;27;20450;-55
2021/08/03 07:00:53;;;;;;;5.93;3.10;;;21.80;1.00;;;;;;5126606;27;20428;-55
2021/08/03 07:03:24;;;;;;;3.90;2.83;;;22.20;1.00;;;;;;5123870;27;20448;-54
2021/08/03 07:05:53;;;;;;;8.70;2.83;;;22.40;1.00;;;;;;5128021;27;20528;-54
2021/08/03 07:08:20;;;;;;;3.13;2.87;;;22.90;1.00;;;;;;5129990;27;20849;-55
2021/08/03 07:10:49;;;;;;;4.07;3.17;;;23.10;1.00;;;;;;5129564;27;20746;-55
2021/08/03 07:13:17;;;;;;;4.07;3.70;;;23.00;1.00;;;;;;5130931;27;20905;-56
2021/08/03 07:15:44;;;;;;;4.23;3.70;;;22.80;1.00;;;;;;5131828;27;20581;-54
2021/08/03 07:18:11;;;;;;;3.40;3.10;;;22.80;1.00;;;;;;5131186;27;20452;-54
2021/08/03 07:20:42;;;;;;;3.80;3.40;;;22.90;1.00;;;;;;5129542;27;20406;-56
2021/08/03 07:23:10;;;;;;;3.70;2.80;;;23.10;1.00;;;;;;5130020;27;20450;-54
2021/08/03 07:25:35;;;;;;;5.27;3.30;;;23.20;1.00;;;;;;5130038;27;20534;-54
2021/08/03 07:28:01;;;;;;;3.47;3.27;;;23.40;1.00;;;;;;5131554;27;20950;-54
2021/08/03 07:30:27;;;;;;;4.30;3.00;;;23.60;1.00;;;;;;5129816;27;20204;-56
2021/08/03 07:32:52;;;;;;;6.33;3.10;;;23.60;1.00;;;;;;5111801;27;20442;-55
2021/08/03 07:35:18;;;;;;;4.10;3.37;;;24.30;1.00;;;;;;5127962;27;20576;-54
2021/08/03 07:37:44;;;;;;;4.97;3.50;;;23.40;1.00;;;;;;5135567;27;20174;-55
2021/08/03 07:40:10;;;;;;;3.87;3.53;;;23.10;1.00;;;;;;5141305;27;20189;-55
2021/08/03 07:42:36;;;;;;;3.83;3.30;;;22.90;1.00;;;;;;5133066;27;20177;-55
2021/08/03 07:45:03;;;;;;;3.60;3.30;;;22.80;1.00;;;;;;5131342;27;20438;-55
2021/08/03 07:47:29;;;;;;;4.37;3.47;;;23.00;1.00;;;;;;5129871;27;20518;-56
2021/08/03 07:49:54;;;;;;;4.07;3.63;;;23.10;1.00;;;;;;5130566;27;20562;-55
2021/08/03 07:52:20;;;;;;;4.23;3.60;;;23.10;1.00;;;;;;5127466;27;20210;-56
2021/08/03 07:54:46;;;;;;;3.60;3.30;;;22.80;1.00;;;;;;5130784;27;20269;-55
2021/08/03 07:57:11;;;;;;;5.00;3.63;;;22.60;1.00;;;;;;5139026;27;20177;-54
2021/08/03 07:59:37;;;;;;;4.67;4.27;;;22.60;1.00;;;;;;5151807;27;20176;-55
2021/08/03 08:02:03;;;;;;;3.87;3.60;;;22.50;1.00;;;;;;5135265;27;20181;-55
2021/08/03 08:04:28;;;;;;;3.80;3.50;;;22.50;1.00;;;;;;5125822;27;20173;-55
2021/08/03 08:06:54;;;;;;;4.17;3.77;;;22.90;1.00;;;;;;5130326;27;20446;-57
2021/08/03 08:09:19;;;;;;;4.37;3.27;;;23.20;1.00;;;;;;5129933;27;20246;-55
2021/08/03 08:11:45;;;;;;;3.97;3.27;;;23.80;1.00;;;;;;5133528;27;20602;-54
2021/08/03 08:14:11;;;;;;;3.50;3.20;;;24.40;1.00;;;;;;5130207;27;20507;-55
2021/08/03 08:16:36;;;;;;;3.43;2.90;;;24.70;1.00;;;;;;5112206;27;20181;-55
2021/08/03 08:19:02;;;;;;;3.47;3.17;;;24.90;1.00;;;;;;5130822;27;20189;-54
2021/08/03 08:21:33;;;;;;;5.40;3.33;;;24.90;1.00;;;;;;5130830;27;20177;-55
2021/08/03 08:23:59;;;;;;;4.17;3.60;;;25.10;1.00;;;;;;5126678;27;20917;-55
2021/08/03 08:26:25;;;;;;;3.50;2.87;;;25.30;1.00;;;;;;5131007;27;20603;-55
2021/08/03 08:28:50;;;;;;;3.33;3.00;;;25.10;1.00;;;;;;5135288;27;21025;-54
2021/08/03 08:31:16;;;;;;;3.63;3.20;;;24.50;1.00;;;;;;5151332;27;20195;-55
2021/08/03 08:33:42;;;;;;;3.27;2.97;;;24.10;1.00;;;;;;5143524;27;20220;-54
2021/08/03 08:36:07;;;;;;;6.10;3.83;;;24.30;1.00;;;;;;5107817;27;20470;-55
2021/08/03 08:38:33;;;;;;;4.00;2.70;;;24.60;1.00;;;;;;5130519;27;20600;-56
2021/08/03 08:40:59;;;;;;;2.93;2.60;;;24.90;1.00;;;;;;5129546;27;20169;-54
2021/08/03 08:43:25;;;;;;;2.90;2.43;;;24.80;1.00;;;;;;5130627;27;20205;-54
2021/08/03 08:45:54;;;;;;;2.97;2.77;;;25.00;1.00;;;;;;5129843;27;20187;-54
2021/08/03 08:48:20;;;;;;;3.03;2.73;;;24.90;1.00;;;;;;5125792;27;20417;-55
2021/08/03 08:50:46;;;;;;;3.23;2.93;;;24.60;1.00;;;;;;5129389;27;20459;-54
2021/08/03 08:53:12;;;;;;;2.60;2.40;;;24.60;1.00;;;;;;5126340;27;20487;-55
2021/08/03 08:55:38;;;;;;;2.77;2.57;;;;;;;;;;5138727;27;20477;-55
2021/08/03 08:58:04;;;;;;;2.93;2.70;;;24.90;1.00;;;;;;5133213;27;20181;-55
2021/08/03 09:00:30;;;;;;;2.63;2.00;;;25.00;1.00;;;;;;5133451;27;20443;-54
2021/08/03 09:02:57;;;;;;;2.40;2.20;;;25.50;1.00;;;;;;5115974;27;20254;-55
2021/08/03 09:05:28;;;;;;;2.30;2.10;;;26.00;1.00;;;;;;5127039;27;20630;-55
2021/08/03 09:07:57;;;;;;;4.23;2.07;;;26.20;1.00;;;;;;5132745;27;20872;-55
2021/08/03 09:10:33;;;;;;;3.63;2.77;;;26.70;1.00;;;;;;5134431;27;21194;-55
2021/08/03 09:13:20;;;;;;;2.80;2.60;;;27.10;1.00;;;;;;5114441;27;20442;-55
2021/08/03 09:16:00;;;;;;;4.83;2.80;;;26.90;1.00;;;;;;5131714;27;20405;-56
2021/08/03 09:18:45;;;;;;;3.13;2.93;;;27.00;1.00;;;;;;5133603;27;20435;-54
2021/08/03 09:21:27;;;;;;;3.20;2.57;;;27.20;1.00;;;;;;5134365;27;20431;-56
2021/08/03 09:24:03;;;;;;;2.80;2.50;;;27.00;1.00;;;;;;5132802;27;20570;-56
2021/08/03 09:26:39;;;;;;;3.30;2.33;;;26.60;1.00;;;;;;5133497;27;20990;-55
2021/08/03 09:29:07;;;;;;;2.60;2.40;;;26.30;1.00;;;;;;5147797;27;20518;-55
2021/08/03 09:31:35;;;;;;;2.60;2.40;;;26.00;1.00;;;;;;5136834;27;20479;-57
2021/08/03 09:34:08;;;;;;;2.50;2.20;;;25.70;1.00;;;;;;5133366;27;20439;-54
2021/08/03 09:36:50;;;;;;;3.00;2.77;;;25.30;1.00;;;;;;5133817;27;20924;-56
2021/08/03 09:39:37;;;;;;;2.30;2.10;;;25.10;1.00;;;;;;5150383;27;20922;-55
2021/08/03 09:42:22;;;;;;;2.73;2.50;;;25.20;1.00;;;;;;5138202;27;20469;-55
2021/08/03 09:44:52;;;;;;;2.50;2.27;;;25.10;1.00;;;;;;5131073;27;20427;-55
2021/08/03 09:47:20;;;;;;;2.47;2.27;;;25.00;1.00;;;;;;5131262;27;20484;-55
2021/08/03 09:49:50;;;;;;;3.20;2.70;;;24.80;1.00;;;;;;5132860;27;20454;-55
2021/08/03 09:52:21;;;;;;;7.93;2.93;;;24.70;1.00;;;;;;5131865;27;20546;-55
2021/08/03 09:54:48;;;;;;;2.20;2.00;;;24.40;1.00;;;;;;5133636;27;20530;-55
2021/08/03 09:57:24;;;;;;;3.77;2.97;;;23.80;1.00;;;;;;5130881;27;20926;-54
2021/08/03 09:59:51;;;;;;;3.10;2.20;;;23.80;1.00;;;;;;5133303;27;20462;-55
2021/08/03 10:02:23;;;;;;;2.93;2.13;;;24.20;1.00;;;;;;5129097;27;20449;-54
2021/08/03 10:04:50;;;;;;;2.60;2.40;;;24.60;1.00;;;;;;5130049;27;20757;-54
2021/08/03 10:07:16;;;;;;;3.67;2.30;;;25.30;1.00;;;;;;5131401;27;20496;-56
2021/08/03 10:09:43;;;;;;;1.90;1.80;;;26.00;1.00;;;;;;5130654;27;20450;-56
2021/08/03 10:12:10;;;;;;;3.07;2.10;;;26.80;1.00;;;;;;5131940;27;20729;-54
2021/08/03 10:14:36;;;;;;;2.50;1.97;;;27.70;1.00;;;;;;5130591;27;20502;-57
2021/08/03 10:17:02;;;;;;;2.40;1.90;;;27.80;1.00;;;;;;5130096;27;20457;-55
2021/08/03 10:19:30;;;;;;;3.10;2.37;;;27.90;1.00;;;;;;5143120;27;20413;-54
2021/08/03 10:22:02;;;;;;;3.30;2.60;;;27.20;1.00;;;;;;5138402;27;20425;-55
2021/08/03 10:24:31;;;;;;;3.50;2.17;;;26.80;1.00;;;;;;5114319;27;20471;-54
2021/08/03 10:27:15;;;;;;;3.17;2.83;;;27.00;1.00;;;;;;5132650;27;20902;-55
2021/08/03 10:29:59;;;;;;;2.30;2.10;;;27.00;1.00;;;;;;5129180;27;20462;-54
2021/08/03 10:32:40;;;;;;;3.27;2.63;;;26.70;1.00;;;;;;5131961;27;20499;-56
2021/08/03 10:35:15;;;;;;;3.03;2.40;;;26.50;1.00;;;;;;5112892;27;20446;-55
2021/08/03 10:37:59;;;;;;;1.93;1.83;;;26.50;1.00;;;;;;5128374;27;20416;-55
2021/08/03 10:40:43;;;;;;;1.90;1.80;;;26.60;1.00;;;;;;5131629;27;20505;-55
2021/08/03 10:43:17;;;;;;;2.80;2.20;;;27.50;1.00;;;;;;5128523;27;20762;-55
2021/08/03 10:45:44;;;;;;;2.27;2.07;;;27.80;1.00;;;;;;5129244;27;20583;-56
2021/08/03 10:48:30;;;;;;;4.20;2.63;;;27.80;1.00;;;;;;5138240;27;20416;-56
2021/08/03 10:50:55;;;;;;;2.70;2.10;;;27.80;1.00;;;;;;5134268;27;20832;-55
2021/08/03 10:53:21;;;;;;;4.50;3.07;;;27.60;1.00;;;;;;5129933;27;20569;-55
2021/08/03 10:56:00;;;;;;;7.00;2.50;;;27.80;1.00;;;;;;5131290;27;20268;-55
2021/08/03 10:58:27;;;;;;;2.80;2.60;;;27.90;1.00;;;;;;5130686;27;20259;-54
2021/08/03 11:00:52;;;;;;;2.43;2.23;;;27.60;1.00;;;;;;5148482;27;20438;-54
2021/08/03 11:03:30;;;;;;;2.40;2.20;;;27.10;1.00;;;;;;5142459;27;20502;-55
2021/08/03 11:05:57;;;;;;;2.30;2.10;;;27.20;1.00;;;;;;5132355;27;20584;-54
2021/08/03 11:08:37;;;;;;;2.83;2.10;;;27.60;1.00;;;;;;5131289;27;20443;-56
2021/08/03 11:11:09;;;;;;;2.27;2.07;;;27.70;1.00;;;;;;5112741;27;20454;-55
2021/08/03 11:14:04;;;;;;;2.50;2.30;;;27.80;1.00;;;;;;5126754;27;20401;-56
2021/08/03 11:16:30;;;;;;;2.80;2.60;;;27.70;1.00;;;;;;5131087;27;20939;-56
2021/08/03 11:19:00;;;;;;;2.30;2.10;;;27.60;1.00;;;;;;5131434;27;20413;-55
2021/08/03 11:21:26;;;;;;;1.87;1.77;;;27.20;1.00;;;;;;5131680;27;20169;-55
2021/08/03 11:24:00;;;;;;;2.13;2.00;;;26.80;1.00;;;;;;5130002;27;20863;-55
2021/08/03 11:26:30;;;;;;;2.00;1.90;;;26.60;1.00;;;;;;5131123;27;20442;-55
2021/08/03 11:28:58;;;;;;;2.03;1.83;;;26.80;1.00;;;;;;5130555;27;20454;-57
2021/08/03 11:31:43;;;;;;;2.30;2.10;;;26.90;1.00;;;;;;5130082;27;20435;-55
2021/08/03 11:34:10;;;;;;;2.13;1.93;;;26.80;1.00;;;;;;5112947;27;20800;-55
2021/08/03 11:36:36;;;;;;;2.63;1.77;;;26.80;1.00;;;;;;5129914;27;21032;-56
2021/08/03 11:39:20;;;;;;;2.50;2.30;;;27.20;1.00;;;;;;5130470;27;20418;-55
2021/08/03 11:41:49;;;;;;;3.40;1.90;;;27.80;1.00;;;;;;5129421;27;20189;-54
2021/08/03 11:44:16;;;;;;;3.63;2.20;;;28.20;1.00;;;;;;5109085;27;20446;-53
2021/08/03 11:46:52;;;;;;;2.10;1.90;;;28.40;1.00;;;;;;5128924;27;20454;-54
2021/08/03 11:49:18;;;;;;;2.27;2.07;;;27.70;1.00;;;;;;5127562;27;20460;-54
2021/08/03 11:51:44;;;;;;;5.70;2.27;;;27.70;1.00;;;;;;5130392;27;20825;-53
2021/08/03 11:54:14;;;;;;;2.40;2.07;;;27.80;1.00;;;;;;5130006;27;20214;-53
2021/08/03 11:56:40;;;;;;;2.10;1.90;;;27.80;1.00;;;;;;5128952;27;20529;-54
2021/08/03 11:59:06;;;;;;;2.53;1.80;;;28.00;1.00;;;;;;5140890;27;20513;-55
2021/08/03 12:01:49;;;;;;;2.37;2.17;;;28.00;1.00;;;;;;5151192;27;20193;-55
2021/08/03 12:04:16;;;;;;;2.50;2.10;;;28.50;1.00;;;;;;5131831;27;20469;-55
2021/08/03 12:06:42;;;;;;;2.23;2.03;;;28.40;1.00;;;;;;5127162;27;20503;-55
2021/08/03 12:09:10;;;;;;;2.20;1.90;;;27.90;1.00;;;;;;5151365;27;20939;-53
2021/08/03 12:11:35;;;;;;;2.30;2.10;;;27.70;1.00;;;;;;5147898;27;20413;-54
2021/08/03 12:14:11;;;;;;;2.37;2.13;;;27.30;1.00;;;;;;5127987;27;20409;-55
2021/08/03 12:16:37;;;;;;;2.43;1.77;;;26.90;1.00;;;;;;5130706;27;20177;-53
2021/08/03 12:19:03;;;;;;;2.53;1.83;;;26.80;1.00;;;;;;5130490;27;20521;-54
2021/08/03 12:21:37;;;;;;;2.50;1.90;;;26.80;1.00;;;;;;5129736;27;20186;-56
2021/08/03 12:24:09;;;;;;;10.90;3.07;;;26.80;1.00;;;;;;5129772;27;20575;-55
2021/08/03 12:26:35;;;;;;;2.87;2.60;;;26.70;1.00;;;;;;5129360;27;20940;-54
2021/08/03 12:29:01;;;;;;;2.53;2.33;;;26.60;1.00;;;;;;5129993;27;20451;-54
2021/08/03 12:31:28;;;;;;;5.30;2.50;;;26.50;1.00;;;;;;5130524;27;21043;-55
2021/08/03 12:34:16;;;;;;;6.00;2.60;;;26.50;1.00;;;;;;5130895;27;20630;-54
2021/08/03 12:36:44;;;;;;;6.60;3.03;;;25.90;1.00;;;;;;5113616;27;20443;-55
2021/08/03 12:39:19;;;;;;;7.67;3.07;;;25.50;1.00;;;;;;5131074;27;20430;-54
2021/08/03 12:42:07;;;;;;;10.17;4.03;;;25.10;1.00;;;;;;5130360;27;20873;-54
2021/08/03 12:44:35;;;;;;;10.60;4.20;;;24.80;1.00;;;;;;5130169;27;20545;-54
2021/08/03 12:47:07;;;;;;;2.33;2.00;;;24.70;1.00;;;;;;5130916;27;20458;-53
2021/08/03 12:49:37;;;;;;;3.70;2.77;;;24.50;1.00;;;;;;5129453;27;20456;-53
2021/08/03 12:52:11;;;;;;;3.50;2.43;;;24.50;1.00;;;;;;5137057;27;20489;-54
2021/08/03 12:54:39;;;;;;;11.50;4.00;;;24.50;1.00;;;;;;5151458;27;20826;-55
2021/08/03 12:57:05;;;;;;;19.40;4.53;;;24.50;1.00;;;;;;5115843;27;20500;-54
2021/08/03 12:59:39;;;;;;;4.63;2.63;;;24.60;1.00;;;;;;5130703;27;20438;-53
2021/08/03 13:02:06;;;;;;;6.00;2.63;;;24.70;1.00;;;;;;5128598;27;20841;-53
2021/08/03 13:04:32;;;;;;;5.70;3.00;;;24.90;1.00;;;;;;5129944;27;21183;-54
2021/08/03 13:07:00;;;;;;;3.77;2.53;;;25.10;1.00;;;;;;5127881;27;20441;-55
2021/08/03 13:09:27;;;;;;;3.17;2.47;;;25.00;1.00;;;;;;5130555;27;20193;-54